createdAt,value
2023-04-01T00:00:57.618Z,23.73
2023-04-01T00:03:24.907Z,27.27
2023-04-01T00:05:51.680Z,35.72
2023-04-01T00:08:18.474Z,30.95
2023-04-01T00:10:45.533Z,19.30
2023-04-01T00:13:12.251Z,24.73
2023-04-01T00:15:39.086Z,18.55
2023-04-01T00:18:07.499Z,27.08
2023-04-01T00:20:34.432Z,17.65
2023-04-01T00:23:01.587Z,31.17
2023-04-01T00:25:28.353Z,19.85
2023-04-01T00:27:56.480Z,19.70
2023-04-01T00:30:23.388Z,21.52
2023-04-01T00:32:52.890Z,26.25
2023-04-01T00:35:19.767Z,27.55
2023-04-01T00:37:46.492Z,19.05
2023-04-01T00:42:49.990Z,27.10
2023-04-01T00:45:25.961Z,25.20
2023-04-01T00:47:52.833Z,25.95
2023-04-01T00:50:19.937Z,26.63
2023-04-01T01:02:36.751Z,22.58
2023-04-01T01:05:03.568Z,13.25
2023-04-01T01:07:42.348Z,24.00
2023-04-01T01:10:15.963Z,24.25
2023-04-01T01:12:48.907Z,25.88
2023-04-01T01:15:25.941Z,23.40
2023-04-01T01:18:02.441Z,21.65
2023-04-01T01:21:04.799Z,27.80
2023-04-01T01:23:31.424Z,20.17
2023-04-01T01:26:01.570Z,16.00
2023-04-01T01:38:34.942Z,24.75
2023-04-01T01:41:06.546Z,26.55
2023-04-01T01:43:35.590Z,26.92
2023-04-01T01:46:05.881Z,24.60
2023-04-01T01:48:33.478Z,23.38
2023-04-01T01:51:00.812Z,19.00
2023-04-01T01:53:27.590Z,23.27
2023-04-01T01:55:54.791Z,24.02
2023-04-01T02:05:47.330Z,25.77
2023-04-01T02:08:18.081Z,20.15
2023-04-01T02:10:48.418Z,23.40
2023-04-01T02:13:22.886Z,27.98
2023-04-01T02:18:17.296Z,23.58
2023-04-01T02:20:44.367Z,17.13
2023-04-01T02:23:11.614Z,14.98
2023-04-01T02:25:40.223Z,19.00
2023-04-01T02:28:08.059Z,16.60
2023-04-01T02:30:36.597Z,17.33
2023-04-01T02:33:04.361Z,21.58
2023-04-01T02:35:31.235Z,21.70
2023-04-01T02:37:58.154Z,20.52
2023-04-01T02:40:25.308Z,20.67
2023-04-01T02:42:52.211Z,17.80
2023-04-01T02:45:18.991Z,20.52
2023-04-01T02:47:45.807Z,21.42
2023-04-01T02:50:12.665Z,18.60
2023-04-01T02:52:39.290Z,17.33
2023-04-01T02:55:07.142Z,25.00
2023-04-01T02:57:34.015Z,19.52
2023-04-01T03:07:17.503Z,20.42
2023-04-01T03:09:44.339Z,19.92
2023-04-01T03:12:11.097Z,24.10
2023-04-01T03:14:37.698Z,18.75
2023-04-01T03:17:04.448Z,19.92
2023-04-01T03:19:31.101Z,19.48
2023-04-01T03:26:48.616Z,19.13
2023-04-01T03:31:42.500Z,19.33
2023-04-01T03:34:09.962Z,18.38
2023-04-01T03:36:36.735Z,12.98
2023-04-01T03:41:40.537Z,20.23
2023-04-01T03:44:07.544Z,22.25
2023-04-01T03:46:34.607Z,14.60
2023-04-01T03:49:01.371Z,21.85
2023-04-01T03:51:43.352Z,14.73
2023-04-01T03:54:10.290Z,15.02
2023-04-01T03:56:37.405Z,19.98
2023-04-01T03:59:05.347Z,15.80
2023-04-01T04:01:32.422Z,14.10
2023-04-01T04:04:00.361Z,17.88
2023-04-01T04:06:27.696Z,12.82
2023-04-01T04:08:54.669Z,16.95
2023-04-01T04:11:21.961Z,17.48
2023-04-01T04:13:50.885Z,26.98
2023-04-01T04:16:17.949Z,17.85
2023-04-01T04:18:48.912Z,15.80
2023-04-01T04:21:16.203Z,22.13
2023-04-01T04:31:01.553Z,20.83
2023-04-01T04:33:28.739Z,24.65
2023-04-01T04:35:56.588Z,23.05
2023-04-01T04:40:49.041Z,24.90
2023-04-01T04:43:16.192Z,19.23
2023-04-01T04:45:43.583Z,22.67
2023-04-01T04:48:14.098Z,21.25
2023-04-01T04:50:41.498Z,17.42
2023-04-01T04:53:10.494Z,17.77
2023-04-01T04:55:37.314Z,16.70
2023-04-01T05:00:47.823Z,22.23
2023-04-01T05:05:52.041Z,22.08
2023-04-01T05:08:18.917Z,19.80
2023-04-01T05:10:46.988Z,20.55
2023-04-01T05:13:13.804Z,21.98
2023-04-01T05:15:42.070Z,15.55
2023-04-01T05:32:42.181Z,26.83
2023-04-01T05:35:09.270Z,19.67
2023-04-01T05:37:36.325Z,21.58
2023-04-01T05:40:04.983Z,23.13
2023-04-01T05:42:31.660Z,24.77
2023-04-01T05:44:58.313Z,22.83
2023-04-01T05:47:24.993Z,20.85
2023-04-01T05:49:52.092Z,25.58
2023-04-01T05:55:00.828Z,17.60
2023-04-01T05:57:27.679Z,22.88
2023-04-01T05:59:54.503Z,18.92
2023-04-01T06:02:21.325Z,20.27
2023-04-01T06:04:48.048Z,22.42
2023-04-01T06:07:15.508Z,26.42
2023-04-01T06:09:42.612Z,23.00
2023-04-01T06:12:09.373Z,19.48
2023-04-01T06:14:58.808Z,26.95
2023-04-01T06:17:41.757Z,25.42
2023-04-01T06:20:08.716Z,22.15
2023-04-01T06:22:50.524Z,25.70
2023-04-01T06:32:56.690Z,24.70
2023-04-01T06:35:38.661Z,25.92
2023-04-01T06:38:18.597Z,24.80
2023-04-01T06:40:50.087Z,23.73
2023-04-01T06:43:16.759Z,18.80
2023-04-01T06:46:08.271Z,17.60
2023-04-01T06:49:05.672Z,19.65
2023-04-01T06:59:26.642Z,13.25
2023-04-01T07:06:56.811Z,17.25
2023-04-01T07:09:27.656Z,24.98
2023-04-01T07:12:17.262Z,25.95
2023-04-01T07:14:44.754Z,23.60
2023-04-01T07:17:27.491Z,17.25
2023-04-01T07:19:59.790Z,19.50
2023-04-01T07:22:32.421Z,22.63
2023-04-01T07:27:28.157Z,16.65
2023-04-01T07:29:57.314Z,17.15
2023-04-01T07:32:24.144Z,15.70
2023-04-01T07:35:04.145Z,19.55
2023-04-01T07:37:31.017Z,20.02
2023-04-01T07:40:04.862Z,16.70
2023-04-01T07:42:37.914Z,18.48
2023-04-01T07:45:10.825Z,18.92
2023-04-01T07:47:58.037Z,25.13
2023-04-01T08:03:40.312Z,19.13
2023-04-01T08:24:20.745Z,11.70
2023-04-01T08:37:06.854Z,16.52
2023-04-01T08:39:39.962Z,14.93
2023-04-01T08:42:15.871Z,14.20
2023-04-01T08:47:37.139Z,14.45
2023-04-01T08:57:42.643Z,11.70
2023-04-01T09:00:48.764Z,13.25
2023-04-01T09:08:39.655Z,12.45
2023-04-01T09:11:25.260Z,17.50
2023-04-01T09:16:24.114Z,14.35
2023-04-01T09:27:01.425Z,13.57
2023-04-01T09:29:34.543Z,15.63
2023-04-01T09:40:23.121Z,14.40
2023-04-01T09:53:48.639Z,16.45
2023-04-01T09:56:34.321Z,14.50
2023-04-01T10:04:13.318Z,13.77
2023-04-01T10:06:49.326Z,13.38
2023-04-01T10:09:30.605Z,13.10
2023-04-01T10:12:03.253Z,12.02
2023-04-01T10:17:52.029Z,15.18
2023-04-01T10:20:29.187Z,6.97
2023-04-01T10:23:09.990Z,7.53
2023-04-01T10:31:23.363Z,14.82
2023-04-01T10:33:56.690Z,12.10
2023-04-01T11:37:25.475Z,8.60
2023-04-01T12:43:46.102Z,9.30
2023-04-01T12:46:19.493Z,8.00
2023-04-01T12:54:02.077Z,6.60
2023-04-01T13:12:48.464Z,6.75
2023-04-01T13:15:16.414Z,5.45
2023-04-01T13:17:43.779Z,11.25
2023-04-01T13:22:39.913Z,7.10
2023-04-01T13:33:11.652Z,4.47
2023-04-01T13:35:41.894Z,15.98
2023-04-01T13:38:15.126Z,5.15
2023-04-01T13:48:34.677Z,7.68
2023-04-01T13:53:46.450Z,10.50
2023-04-01T14:11:33.408Z,7.00
2023-04-01T14:16:51.306Z,4.25
2023-04-01T14:19:38.922Z,3.17
2023-04-01T14:27:47.592Z,3.97
2023-04-01T14:30:21.679Z,3.60
2023-04-01T14:35:47.300Z,6.95
2023-04-01T14:41:04.903Z,7.38
2023-04-01T14:49:30.361Z,6.80
2023-04-01T15:15:05.337Z,2.53
2023-04-01T15:17:35.467Z,3.55
2023-04-01T15:28:20.672Z,3.72
2023-04-01T15:30:55.473Z,2.80
2023-04-01T15:33:28.663Z,6.10
2023-04-01T15:48:52.878Z,7.05
2023-04-01T16:09:52.293Z,6.65
2023-04-01T16:23:05.870Z,8.85
2023-04-01T16:25:46.676Z,7.43
2023-04-01T16:44:14.302Z,6.78
2023-04-01T16:47:01.821Z,9.70
2023-04-01T17:07:28.138Z,8.18
2023-04-01T17:17:44.291Z,10.95
2023-04-01T17:20:14.361Z,13.82
2023-04-01T17:37:50.525Z,14.63
2023-04-01T17:51:18.610Z,11.23
2023-04-01T17:53:52.336Z,21.50
2023-04-01T18:06:38.679Z,24.17
2023-04-01T18:09:08.827Z,27.42
2023-04-01T18:11:36.407Z,21.17
2023-04-01T18:14:12.889Z,23.67
2023-04-01T18:16:55.496Z,22.50
2023-04-01T18:19:27.687Z,19.05
2023-04-01T18:21:56.950Z,16.45
2023-04-01T18:35:21.090Z,12.85
2023-04-01T18:40:27.575Z,16.10
2023-04-01T18:42:54.847Z,8.07
2023-04-01T18:47:50.382Z,21.65
2023-04-01T18:50:26.746Z,19.55
2023-04-01T18:52:59.040Z,20.60
2023-04-01T18:55:32.412Z,15.07
2023-04-01T19:05:44.538Z,13.13
2023-04-01T19:13:19.480Z,13.05
2023-04-01T19:18:49.723Z,19.45
2023-04-01T19:26:30.661Z,18.05
2023-04-01T19:29:06.073Z,17.52
2023-04-01T19:31:36.439Z,26.20
2023-04-01T19:34:03.549Z,18.55
2023-04-01T19:36:43.035Z,11.70
2023-04-01T19:39:19.641Z,12.13
2023-04-01T19:44:36.813Z,23.95
2023-04-01T19:49:49.184Z,17.75
2023-04-01T19:52:25.179Z,18.73
2023-04-01T19:54:59.163Z,13.38
2023-04-01T20:02:38.928Z,11.88
2023-04-01T20:05:19.583Z,12.98
2023-04-01T20:20:29.688Z,19.15
2023-04-01T20:23:01.007Z,12.85
2023-04-01T20:25:48.132Z,16.83
2023-04-01T20:28:21.337Z,13.27
2023-04-01T20:36:07.542Z,15.88
2023-04-01T20:38:53.321Z,11.98
2023-04-01T20:52:12.585Z,13.20
2023-04-01T20:54:39.779Z,16.08
2023-04-01T21:49:10.110Z,13.40
2023-04-01T21:51:56.671Z,12.25
2023-04-01T22:21:06.551Z,16.80
2023-04-01T22:23:56.236Z,16.25
2023-04-01T23:18:37.967Z,18.20
2023-04-01T23:23:58.627Z,20.05
2023-04-01T23:33:55.776Z,16.48
2023-04-01T23:36:23.292Z,15.70
2023-04-01T23:38:50.979Z,12.38
2023-04-01T23:46:26.430Z,16.08
2023-04-01T23:48:54.219Z,22.75
2023-04-01T23:54:01.540Z,15.18
